Time;durP1;ratioP1;P1;durP2;ratioP2;P2;SDS_P1;SDS_P2;PMS_P1;PMS_P2;Temp;Humidity;BMP_temperature;BMP_pressure;BME280_temperature;BME280_humidity;BME280_pressure;Samples;Min_cycle;Max_cycle;Signal;HPM_P1;HPM_P2
2022/09/16 00:02:09;;;;;;;0.10;0.10;;;;;;;;;;4962734;28;20038;-89
2022/09/16 00:04:35;;;;;;;0.10;0.10;;;;;;;;;;4978469;28;20505;-89
2022/09/16 00:07:02;;;;;;;0.10;0.10;;;;;;;;;;4962535;28;20440;-88
2022/09/16 00:09:28;;;;;;;0.10;0.10;;;;;;;;;;4978670;28;20092;-90
2022/09/16 00:11:54;;;;;;;0.10;0.10;;;;;;;;;;4962326;28;20041;-89
2022/09/16 00:14:20;;;;;;;0.25;0.25;;;;;;;;;;4962501;28;20046;-89
2022/09/16 00:16:46;;;;;;;0.10;0.10;;;;;;;;;;4979394;28;20042;-89
2022/09/16 00:19:12;;;;;;;0.10;0.10;;;;;;;;;;4966586;28;20038;-89
2022/09/16 00:21:38;;;;;;;0.10;0.10;;;;;;;;;;4982414;28;20069;-89
2022/09/16 00:24:04;;;;;;;0.10;0.10;;;;;;;;;;4966402;28;20048;-90
2022/09/16 00:26:30;;;;;;;0.10;0.10;;;;;;;;;;4998307;28;20042;-89
2022/09/16 00:28:56;;;;;;;0.10;0.10;;;;;;;;;;4966287;28;20129;-89
2022/09/16 00:31:22;;;;;;;0.10;0.10;;;;;;;;;;4982328;28;20564;-89
2022/09/16 00:33:48;;;;;;;0.10;0.10;;;;;;;;;;4982289;28;20042;-90
2022/09/16 00:36:15;;;;;;;0.10;0.10;;;;;;;;;;4966405;28;20072;-90
2022/09/16 00:38:41;;;;;;;0.10;0.10;;;;;;;;;;4966137;28;20052;-90
2022/09/16 00:41:07;;;;;;;0.10;0.10;;;;;;;;;;4982098;28;20046;-89
2022/09/16 00:44:09;;;;;;;0.10;0.10;;;;;;;;;;4982047;28;20169;-89
2022/09/16 00:46:35;;;;;;;0.10;0.10;;;;;;;;;;4982436;28;20088;-89
2022/09/16 00:49:02;;;;;;;0.10;0.10;;;;;;;;;;4982176;28;20444;-89
2022/09/16 00:51:28;;;;;;;0.10;0.10;;;;;;;;;;4966048;28;20470;-90
2022/09/16 00:53:59;;;;;;;1.25;0.20;;;;;;;;;;4991499;28;20050;-89
2022/09/16 00:56:25;;;;;;;0.10;0.10;;;;;;;;;;4999092;28;20049;-89
2022/09/16 00:58:53;;;;;;;0.10;0.10;;;;;;;;;;4998224;28;20038;-90
2022/09/16 01:01:19;;;;;;;0.10;0.10;;;;;;;;;;4998325;28;20124;-89
2022/09/16 01:03:46;;;;;;;0.10;0.10;;;;;;;;;;4998172;28;20038;-89
2022/09/16 01:06:12;;;;;;;0.10;0.10;;;;;;;;;;4981723;28;20508;-89
2022/09/16 01:08:38;;;;;;;0.10;0.10;;;;;;;;;;4998018;28;20076;-90
2022/09/16 01:11:04;;;;;;;0.10;0.10;;;;;;;;;;4982399;28;20371;-89
2022/09/16 01:13:30;;;;;;;0.10;0.10;;;;;;;;;;4998012;28;20034;-90
2022/09/16 01:16:06;;;;;;;0.10;0.10;;;;;;;;;;4981789;28;20520;-90
2022/09/16 01:18:41;;;;;;;0.10;0.10;;;;;;;;;;4981510;28;20041;-90
2022/09/16 01:21:32;;;;;;;0.10;0.10;;;;;;;;;;5014255;28;20080;-89
2022/09/16 01:24:02;;;;;;;0.10;0.10;;;;;;;;;;5006974;28;20061;-88
2022/09/16 01:26:47;;;;;;;0.10;0.10;;;;;;;;;;5013814;28;20438;-89
2022/09/16 01:29:13;;;;;;;0.10;0.10;;;;;;;;;;5013692;28;20046;-90
2022/09/16 01:31:45;;;;;;;0.10;0.10;;;;;;;;;;5013995;28;20046;-88
2022/09/16 01:34:11;;;;;;;0.10;0.10;;;;;;;;;;4997479;28;20102;-88
2022/09/16 01:36:40;;;;;;;0.10;0.10;;;;;;;;;;5013607;28;20038;-87
2022/09/16 01:39:09;;;;;;;0.10;0.10;;;;;;;;;;4997724;28;20034;-88
2022/09/16 01:41:35;;;;;;;0.10;0.10;;;;;;;;;;5029903;28;20049;-88
2022/09/16 01:44:03;;;;;;;0.10;0.10;;;;;;;;;;5013604;28;20620;-88
2022/09/16 01:46:39;;;;;;;0.10;0.10;;;;;;;;;;4997251;28;20046;-88
2022/09/16 01:49:11;;;;;;;0.10;0.10;;;;;;;;;;4997283;28;20079;-88
2022/09/16 01:51:45;;;;;;;0.10;0.10;;;;;;;;;;5013339;28;20069;-87
2022/09/16 01:54:12;;;;;;;0.10;0.10;;;;;;;;;;4996890;28;20049;-88
2022/09/16 01:56:50;;;;;;;0.10;0.10;;;;;;;;;;4997206;28;20096;-87
2022/09/16 01:59:18;;;;;;;0.10;0.10;;;;;;;;;;4997185;28;20141;-88
2022/09/16 02:01:46;;;;;;;0.10;0.10;;;;;;;;;;4980582;28;20172;-88
2022/09/16 02:04:13;;;;;;;0.10;0.10;;;;;;;;;;4996862;28;20049;-87
2022/09/16 02:06:39;;;;;;;0.10;0.10;;;;;;;;;;4996913;28;20049;-88
2022/09/16 02:09:07;;;;;;;0.10;0.10;;;;;;;;;;4996884;28;20034;-88
2022/09/16 02:11:33;;;;;;;0.10;0.10;;;;;;;;;;4996855;28;20113;-87
2022/09/16 02:14:04;;;;;;;0.10;0.10;;;;;;;;;;4980474;28;20076;-88
2022/09/16 02:16:34;;;;;;;0.10;0.10;;;;;;;;;;4980528;28;20042;-88
2022/09/16 02:19:01;;;;;;;0.10;0.10;;;;;;;;;;5013035;28;20482;-88
2022/09/16 02:21:27;;;;;;;0.10;0.10;;;;;;;;;;4997006;28;20116;-88
2022/09/16 02:23:54;;;;;;;0.10;0.10;;;;;;;;;;4980396;28;20129;-88
2022/09/16 02:26:21;;;;;;;0.10;0.10;;;;;;;;;;5012762;28;20046;-88
2022/09/16 02:28:47;;;;;;;0.10;0.10;;;;;;;;;;4996835;28;20033;-88
2022/09/16 02:31:13;;;;;;;0.10;0.10;;;;;;;;;;4996454;28;20084;-89
2022/09/16 02:34:00;;;;;;;0.10;0.10;;;;;;;;;;4996301;28;20092;-88
2022/09/16 02:36:26;;;;;;;0.10;0.10;;;;;;;;;;5012656;28;20393;-89
2022/09/16 02:38:53;;;;;;;0.10;0.10;;;;;;;;;;4980397;28;20041;-89
2022/09/16 02:41:19;;;;;;;0.10;0.10;;;;;;;;;;4979415;28;20049;-89
2022/09/16 02:43:45;;;;;;;0.10;0.10;;;;;;;;;;4996272;28;20095;-88
2022/09/16 02:46:14;;;;;;;0.10;0.10;;;;;;;;;;4979825;28;20057;-90
2022/09/16 02:48:40;;;;;;;0.10;0.10;;;;;;;;;;5012297;28;20077;-89
2022/09/16 02:51:13;;;;;;;0.10;0.10;;;;;;;;;;5012389;28;20081;-90
2022/09/16 02:53:44;;;;;;;0.10;0.10;;;;;;;;;;4979870;28;20049;-90
2022/09/16 02:56:13;;;;;;;0.10;0.10;;;;;;;;;;4979994;28;20477;-90
2022/09/16 02:58:39;;;;;;;0.10;0.10;;;;;;;;;;4996127;28;20053;-91
2022/09/16 03:01:06;;;;;;;0.10;0.10;;;;;;;;;;4980092;28;20037;-91
2022/09/16 03:03:32;;;;;;;0.20;0.20;;;;;;;;;;5012151;28;20048;-90
2022/09/16 03:06:13;;;;;;;0.10;0.10;;;;;;;;;;4979561;28;20042;-91
2022/09/16 03:08:39;;;;;;;0.10;0.10;;;;;;;;;;4995869;28;20046;-90
2022/09/16 03:11:13;;;;;;;0.10;0.10;;;;;;;;;;4979596;28;20401;-90
2022/09/16 03:13:43;;;;;;;0.10;0.10;;;;;;;;;;5012348;28;20501;-91
2022/09/16 03:16:12;;;;;;;0.10;0.10;;;;;;;;;;4979790;28;20050;-90
2022/09/16 03:18:58;;;;;;;0.10;0.10;;;;;;;;;;4995964;28;20113;-90
2022/09/16 03:21:29;;;;;;;0.10;0.10;;;;;;;;;;4995270;28;20131;-89
2022/09/16 03:24:06;;;;;;;0.10;0.10;;;;;;;;;;4995574;28;20054;-90
2022/09/16 03:26:52;;;;;;;0.10;0.10;;;;;;;;;;4979298;28;20045;-90
2022/09/16 03:29:30;;;;;;;0.10;0.10;;;;;;;;;;4979419;28;20121;-89
2022/09/16 03:32:05;;;;;;;0.10;0.10;;;;;;;;;;4979286;28;20200;-89
2022/09/16 03:34:44;;;;;;;0.10;0.10;;;;;;;;;;4979116;28;20131;-89
2022/09/16 03:37:12;;;;;;;0.10;0.10;;;;;;;;;;4979557;28;20117;-90
2022/09/16 03:39:40;;;;;;;0.10;0.10;;;;;;;;;;4979315;28;20045;-89
2022/09/16 03:42:08;;;;;;;0.10;0.10;;;;;;;;;;5011385;28;20041;-90
2022/09/16 03:44:38;;;;;;;0.10;0.10;;;;;;;;;;4979905;28;20042;-90
2022/09/16 03:47:06;;;;;;;0.10;0.10;;;;;;;;;;4978774;28;20077;-89
2022/09/16 03:49:32;;;;;;;0.10;0.10;;;;;;;;;;4979062;28;20034;-89
2022/09/16 03:51:58;;;;;;;0.10;0.10;;;;;;;;;;4978484;28;20040;-89
2022/09/16 03:54:24;;;;;;;0.10;0.10;;;;;;;;;;4978814;28;20057;-88
2022/09/16 03:56:50;;;;;;;0.10;0.10;;;;;;;;;;4994965;28;20056;-89
2022/09/16 03:59:16;;;;;;;0.10;0.10;;;;;;;;;;4979208;28;20077;-88
2022/09/16 04:01:42;;;;;;;0.10;0.10;;;;;;;;;;5011185;28;20049;-89
2022/09/16 04:04:08;;;;;;;0.10;0.10;;;;;;;;;;4978750;28;20042;-88
2022/09/16 04:06:34;;;;;;;0.10;0.10;;;;;;;;;;4978843;28;20402;-89
2022/09/16 04:09:05;;;;;;;0.10;0.10;;;;;;;;;;4994998;28;20042;-89
2022/09/16 04:11:33;;;;;;;0.10;0.10;;;;;;;;;;4978790;28;20041;-90
2022/09/16 04:13:59;;;;;;;0.10;0.10;;;;;;;;;;5011735;28;20149;-90
2022/09/16 04:16:26;;;;;;;0.10;0.10;;;;;;;;;;4978739;28;20074;-90
2022/09/16 04:18:52;;;;;;;0.10;0.10;;;;;;;;;;4978873;28;20057;-90
2022/09/16 04:21:18;;;;;;;0.10;0.10;;;;;;;;;;5011530;28;20054;-90
2022/09/16 04:23:45;;;;;;;0.10;0.10;;;;;;;;;;4979018;28;20110;-90
2022/09/16 04:26:11;;;;;;;0.10;0.10;;;;;;;;;;4978642;28;20049;-90
2022/09/16 04:28:37;;;;;;;0.10;0.10;;;;;;;;;;4978665;28;20397;-89
2022/09/16 04:31:04;;;;;;;0.10;0.10;;;;;;;;;;4994646;28;20077;-89
2022/09/16 04:33:30;;;;;;;0.10;0.10;;;;;;;;;;4995443;28;20437;-90
2022/09/16 04:36:11;;;;;;;0.10;0.10;;;;;;;;;;4995134;28;20052;-90
2022/09/16 04:38:37;;;;;;;0.10;0.10;;;;;;;;;;4978615;28;20659;-89
2022/09/16 04:41:03;;;;;;;0.10;0.10;;;;;;;;;;4994473;28;20124;-88
2022/09/16 04:43:29;;;;;;;0.10;0.10;;;;;;;;;;4994862;28;20104;-89
2022/09/16 04:45:55;;;;;;;0.10;0.10;;;;;;;;;;4994474;28;20100;-90
2022/09/16 04:48:22;;;;;;;0.10;0.10;;;;;;;;;;4994541;28;20042;-90
2022/09/16 04:50:48;;;;;;;0.10;0.10;;;;;;;;;;5010693;28;20125;-89
2022/09/16 04:53:14;;;;;;;0.10;0.10;;;;;;;;;;4978490;28;20144;-89
2022/09/16 04:55:40;;;;;;;0.10;0.10;;;;;;;;;;4994623;28;20056;-89
2022/09/16 04:58:06;;;;;;;0.10;0.10;;;;;;;;;;4978308;28;20474;-89
2022/09/16 05:00:32;;;;;;;0.10;0.10;;;;;;;;;;4978408;28;20081;-88
2022/09/16 05:02:58;;;;;;;0.10;0.10;;;;;;;;;;4995478;28;20038;-88
2022/09/16 05:05:24;;;;;;;0.10;0.10;;;;;;;;;;4982104;28;20045;-88
2022/09/16 05:07:50;;;;;;;0.10;0.10;;;;;;;;;;4982004;28;20042;-88
2022/09/16 05:10:16;;;;;;;0.10;0.10;;;;;;;;;;4998320;28;20069;-88
2022/09/16 05:12:42;;;;;;;0.10;0.10;;;;;;;;;;4981884;28;20038;-87
2022/09/16 05:15:08;;;;;;;0.10;0.10;;;;;;;;;;4998076;28;20508;-88
2022/09/16 05:17:34;;;;;;;0.10;0.10;;;;;;;;;;4998085;28;20049;-88
2022/09/16 05:20:00;;;;;;;0.10;0.10;;;;;;;;;;4981783;28;20038;-88
2022/09/16 05:22:26;;;;;;;0.10;0.10;;;;;;;;;;5014183;28;20393;-88
2022/09/16 05:24:52;;;;;;;0.10;0.10;;;;;;;;;;4981711;28;20038;-88
2022/09/16 05:27:18;;;;;;;0.10;0.10;;;;;;;;;;4998053;28;20048;-88
2022/09/16 05:29:44;;;;;;;0.10;0.10;;;;;;;;;;4981462;28;20042;-89
2022/09/16 05:32:10;;;;;;;0.10;0.10;;;;;;;;;;4997574;28;20038;-88
2022/09/16 05:34:37;;;;;;;0.10;0.10;;;;;;;;;;4981615;28;20038;-88
2022/09/16 05:37:03;;;;;;;0.10;0.10;;;;;;;;;;4981538;28;20070;-88
2022/09/16 05:39:29;;;;;;;0.10;0.10;;;;;;;;;;4997530;28;20038;-88
2022/09/16 05:41:56;;;;;;;0.10;0.10;;;;;;;;;;5013589;28;20116;-88
2022/09/16 05:44:22;;;;;;;0.10;0.10;;;;;;;;;;4981556;28;20041;-88
2022/09/16 05:46:48;;;;;;;0.10;0.10;;;;;;;;;;4981252;28;20038;-87
2022/09/16 05:49:19;;;;;;;0.10;0.10;;;;;;;;;;4997424;28;20046;-88
2022/09/16 05:51:45;;;;;;;0.10;0.10;;;;;;;;;;4997988;28;20042;-89
2022/09/16 05:54:11;;;;;;;0.10;0.10;;;;;;;;;;4954305;28;20065;-88
2022/09/16 05:56:37;;;;;;;0.10;0.10;;;;;;;;;;4945589;28;20097;-88
2022/09/16 05:59:03;;;;;;;0.20;0.20;;;;;;;;;;4961704;28;20386;-88
2022/09/16 06:01:33;;;;;;;0.10;0.10;;;;;;;;;;4945698;28;20049;-89
2022/09/16 06:04:00;;;;;;;0.10;0.10;;;;;;;;;;4961365;28;20072;-91
2022/09/16 06:06:27;;;;;;;0.10;0.10;;;;;;;;;;4945538;28;20048;-93
2022/09/16 06:08:53;;;;;;;0.10;0.10;;;;;;;;;;4946700;28;20042;-93
2022/09/16 06:11:19;;;;;;;0.10;0.10;;;;;;;;;;4946083;28;20043;-94
2022/09/16 06:13:47;;;;;;;0.10;0.10;;;;;;;;;;4947845;28;20034;-95
2022/09/16 06:16:13;;;;;;;0.20;0.20;;;;;;;;;;4961329;28;20038;-96
2022/09/16 06:18:39;;;;;;;0.13;0.13;;;;;;;;;;4946458;28;20049;-96
2022/09/16 06:21:09;;;;;;;0.10;0.10;;;;;;;;;;4946452;28;20045;-94
2022/09/16 06:23:36;;;;;;;0.10;0.10;;;;;;;;;;4946817;28;20038;-94
2022/09/16 06:26:03;;;;;;;0.10;0.10;;;;;;;;;;4946214;28;20050;-95
2022/09/16 06:28:29;;;;;;;0.10;0.10;;;;;;;;;;4946139;28;20049;-95
2022/09/16 06:31:06;;;;;;;0.10;0.10;;;;;;;;;;4955626;28;20097;-97
2022/09/16 06:33:32;;;;;;;0.10;0.10;;;;;;;;;;4948932;28;20053;-95
2022/09/16 06:36:01;;;;;;;0.10;0.10;;;;;;;;;;4946137;28;20064;-96
2022/09/16 06:38:28;;;;;;;0.10;0.10;;;;;;;;;;4946514;28;20132;-96
2022/09/16 06:40:59;;;;;;;0.10;0.10;;;;;;;;;;4945665;28;20042;-95
2022/09/16 06:43:25;;;;;;;0.10;0.10;;;;;;;;;;4961700;28;20045;-95
2022/09/16 06:45:55;;;;;;;0.10;0.10;;;;;;;;;;4945677;28;20509;-96
2022/09/16 06:48:21;;;;;;;0.10;0.10;;;;;;;;;;4977579;28;20572;-96
2022/09/16 06:50:47;;;;;;;0.10;0.10;;;;;;;;;;4946199;28;20085;-96
2022/09/16 06:53:16;;;;;;;0.10;0.10;;;;;;;;;;4958090;28;20493;-96
2022/09/16 06:55:42;;;;;;;0.10;0.10;;;;;;;;;;4997258;28;20041;-95
2022/09/16 06:58:08;;;;;;;0.10;0.10;;;;;;;;;;4981249;28;20485;-96
2022/09/16 07:00:46;;;;;;;0.10;0.10;;;;;;;;;;4997783;28;20046;-96
2022/09/16 07:03:14;;;;;;;0.10;0.10;;;;;;;;;;5013158;28;20042;-94
2022/09/16 07:05:40;;;;;;;0.10;0.10;;;;;;;;;;5020270;28;20077;-96
2022/09/16 07:08:08;;;;;;;0.10;0.10;;;;;;;;;;5006688;28;20037;-95
2022/09/16 07:10:34;;;;;;;5.18;0.30;;;;;;;;;;5017447;28;20042;-96
2022/09/16 07:13:04;;;;;;;0.10;0.10;;;;;;;;;;4983538;28;20041;-95
2022/09/16 07:16:02;;;;;;;0.10;0.10;;;;;;;;;;4987097;28;20088;-96
2022/09/16 07:18:37;;;;;;;0.10;0.10;;;;;;;;;;5018307;28;20061;-96
2022/09/16 07:21:07;;;;;;;0.10;0.10;;;;;;;;;;4988397;28;20303;-96
2022/09/16 07:36:33;;;;;;;0.10;0.10;;;;;;;;;;4958193;28;20039;-94
2022/09/16 07:38:59;;;;;;;0.10;0.10;;;;;;;;;;4943908;28;20089;-93
2022/09/16 07:41:27;;;;;;;0.10;0.10;;;;;;;;;;4941724;28;20043;-93
2022/09/16 07:43:54;;;;;;;0.10;0.10;;;;;;;;;;4941313;28;20049;-92
2022/09/16 07:46:22;;;;;;;0.30;0.30;;;;;;;;;;4941240;28;20409;-94
2022/09/16 07:48:49;;;;;;;0.10;0.10;;;;;;;;;;4941001;28;20081;-93
2022/09/16 07:51:18;;;;;;;0.10;0.10;;;;;;;;;;4941148;28;20074;-93
2022/09/16 07:53:44;;;;;;;0.10;0.10;;;;;;;;;;4941511;28;20031;-92
2022/09/16 07:56:13;;;;;;;0.10;0.10;;;;;;;;;;4940297;28;20046;-93
2022/09/16 07:58:40;;;;;;;0.10;0.10;;;;;;;;;;4940642;28;20133;-93
2022/09/16 08:01:06;;;;;;;0.10;0.10;;;;;;;;;;4940756;28;20109;-92
2022/09/16 08:03:33;;;;;;;0.30;0.30;;;;;;;;;;5396881;22;20025;-94
2022/09/16 08:06:42;;;;;;;0.10;0.10;;;;;;;;;;4998774;28;20188;-95
2022/09/16 08:09:12;;;;;;;0.10;0.10;;;;;;;;;;5000327;28;20183;-95
2022/09/16 08:11:49;;;;;;;0.20;0.20;;;;;;;;;;4997769;28;20041;-96
2022/09/16 08:20:10;;;;;;;0.20;0.20;;;;;;;;;;5362646;22;20045;-95
2022/09/16 08:22:36;;;;;;;0.10;0.10;;;;;;;;;;5473062;23;20049;-93
2022/09/16 08:25:05;;;;;;;0.10;0.10;;;;;;;;;;4998489;28;20056;-94
2022/09/16 08:27:34;;;;;;;0.10;0.10;;;;;;;;;;4998637;28;20041;-93
2022/09/16 08:30:08;;;;;;;0.10;0.10;;;;;;;;;;4999370;28;20092;-95
2022/09/16 08:32:34;;;;;;;0.10;0.10;;;;;;;;;;4979273;28;20038;-93
2022/09/16 08:35:00;;;;;;;0.55;0.55;;;;;;;;;;4979216;28;20128;-92
2022/09/16 08:37:26;;;;;;;0.75;0.30;;;;;;;;;;4978734;28;20400;-93
2022/09/16 08:39:52;;;;;;;0.10;0.10;;;;;;;;;;4982719;28;20051;-93
2022/09/16 08:42:28;;;;;;;0.20;0.20;;;;;;;;;;4983326;28;20213;-92
2022/09/16 08:45:14;;;;;;;0.10;0.10;;;;;;;;;;4989410;28;20068;-92
2022/09/16 08:47:50;;;;;;;0.10;0.10;;;;;;;;;;4987170;28;20045;-95
2022/09/16 09:08:32;;;;;;;0.10;0.10;;;;;;;;;;6069541;22;20083;-95
2022/09/16 09:15:04;;;;;;;0.10;0.10;;;;;;;;;;4997157;28;20050;-96
2022/09/16 09:17:44;;;;;;;0.10;0.10;;;;;;;;;;4963862;28;20038;-91
2022/09/16 09:20:24;;;;;;;0.95;0.68;;;;;;;;;;4967142;28;20386;-93
2022/09/16 09:23:09;;;;;;;0.10;0.10;;;;;;;;;;4962795;28;20045;-92
2022/09/16 09:25:39;;;;;;;0.10;0.10;;;;;;;;;;4978189;28;20046;-94
2022/09/16 09:28:16;;;;;;;0.10;0.10;;;;;;;;;;4946096;28;20054;-93
2022/09/16 09:31:11;;;;;;;;;;;;;;;;;;;;;
2022/09/16 09:33:56;;;;;;;0.10;0.10;;;;;;;;;;4990606;28;20085;-94
2022/09/16 09:36:25;;;;;;;0.10;0.10;;;;;;;;;;4979004;28;20042;-93
2022/09/16 09:39:01;;;;;;;0.10;0.10;;;;;;;;;;4979250;28;20034;-92
2022/09/16 09:41:41;;;;;;;0.10;0.10;;;;;;;;;;4963207;28;20118;-95
2022/09/16 09:44:22;;;;;;;0.70;0.20;;;;;;;;;;4963245;28;20041;-94
2022/09/16 09:46:52;;;;;;;0.32;0.32;;;;;;;;;;4962481;28;20039;-94
2022/09/16 09:49:32;;;;;;;0.22;0.22;;;;;;;;;;4977251;28;20046;-94
2022/09/16 09:52:00;;;;;;;0.17;0.17;;;;;;;;;;4961816;28;20042;-94
2022/09/16 09:54:30;;;;;;;0.10;0.10;;;;;;;;;;4961465;28;20038;-92
2022/09/16 09:57:03;;;;;;;0.25;0.20;;;;;;;;;;4962013;28;20088;-90
2022/09/16 09:59:29;;;;;;;0.65;0.40;;;;;;;;;;4961386;28;20049;-90
2022/09/16 10:01:56;;;;;;;0.13;0.13;;;;;;;;;;4972075;28;20050;-90
2022/09/16 10:04:22;;;;;;;0.13;0.13;;;;;;;;;;4975318;28;20038;-88
2022/09/16 10:06:52;;;;;;;0.10;0.10;;;;;;;;;;4974666;28;20080;-94
2022/09/16 10:09:18;;;;;;;0.10;0.10;;;;;;;;;;5003068;28;20046;-89
2022/09/16 10:11:47;;;;;;;0.10;0.10;;;;;;;;;;5010006;28;20042;-90
2022/09/16 10:14:33;;;;;;;0.95;0.95;;;;;;;;;;5009689;28;20557;-90
2022/09/16 10:17:03;;;;;;;0.10;0.10;;;;;;;;;;5009796;28;20096;-89
2022/09/16 10:19:29;;;;;;;0.10;0.10;;;;;;;;;;5026022;28;20034;-91
2022/09/16 10:21:56;;;;;;;0.10;0.10;;;;;;;;;;5009501;28;20042;-89
2022/09/16 10:24:30;;;;;;;0.10;0.10;;;;;;;;;;5009532;28;20053;-90
2022/09/16 10:26:56;;;;;;;0.10;0.10;;;;;;;;;;5009540;28;20402;-90
2022/09/16 10:29:22;;;;;;;0.10;0.10;;;;;;;;;;5026217;28;20442;-91
2022/09/16 10:31:52;;;;;;;0.30;0.20;;;;;;;;;;5018155;28;20034;-94
2022/09/16 10:34:50;;;;;;;;;;;;;;;;;;;;;
2022/09/16 10:37:26;;;;;;;0.20;0.20;;;;;;;;;;5013108;28;20077;-93
2022/09/16 10:39:55;;;;;;;0.10;0.10;;;;;;;;;;4998769;28;20042;-96
2022/09/16 10:42:37;;;;;;;0.10;0.10;;;;;;;;;;5000519;28;20050;-96
2022/09/16 10:45:23;;;;;;;0.10;0.10;;;;;;;;;;5041433;28;20482;-94
2022/09/16 10:48:28;;;;;;;;;;;;;;;;;;;;;
2022/09/16 10:51:25;;;;;;;0.25;0.15;;;;;;;;;;4988116;28;20057;-93
2022/09/16 10:54:11;;;;;;;;;;;;;;;;;;;;;
2022/09/16 10:57:02;;;;;;;0.35;0.35;;;;;;;;;;5007639;28;20065;-96
2022/09/16 10:59:31;;;;;;;0.10;0.10;;;;;;;;;;5013945;28;20041;-92
2022/09/16 11:05:32;;;;;;;0.10;0.10;;;;;;;;;;4959404;28;20058;-94
2022/09/16 11:08:51;;;;;;;0.10;0.10;;;;;;;;;;4977477;28;20047;-92
2022/09/16 11:11:37;;;;;;;0.10;0.10;;;;;;;;;;4960977;28;20080;-93
2022/09/16 11:14:15;;;;;;;0.10;0.10;;;;;;;;;;4981528;28;20067;-95
2022/09/16 11:16:51;;;;;;;0.10;0.10;;;;;;;;;;4984954;28;20050;-94
2022/09/16 11:19:36;;;;;;;0.80;0.63;;;;;;;;;;5036457;28;20086;-96
2022/09/16 11:25:41;;;;;;;0.10;0.10;;;;;;;;;;5491974;22;20045;-96
2022/09/16 11:28:52;;;;;;;0.30;0.30;;;;;;;;;;5038002;28;20038;-96
2022/09/16 11:31:39;;;;;;;0.10;0.10;;;;;;;;;;5015995;28;20088;-96
2022/09/16 11:34:37;;;;;;;0.28;0.20;;;;;;;;;;5027015;28;20052;-96
2022/09/16 11:37:30;;;;;;;0.10;0.10;;;;;;;;;;5018868;28;20084;-94
2022/09/16 11:40:22;;;;;;;0.30;0.30;;;;;;;;;;5005176;28;20185;-95
2022/09/16 11:42:55;;;;;;;0.10;0.10;;;;;;;;;;5028156;28;20140;-94
2022/09/16 11:45:24;;;;;;;0.38;0.38;;;;;;;;;;5000889;28;20576;-95
2022/09/16 11:47:57;;;;;;;0.10;0.10;;;;;;;;;;4999721;28;20134;-92
2022/09/16 11:50:44;;;;;;;0.10;0.10;;;;;;;;;;4999477;28;20052;-93
2022/09/16 12:02:55;;;;;;;0.10;0.10;;;;;;;;;;5686475;22;20087;-95
2022/09/16 12:05:52;;;;;;;0.65;0.30;;;;;;;;;;5019817;28;20079;-96
2022/09/16 12:08:57;;;;;;;0.10;0.10;;;;;;;;;;4994222;28;20060;-92
2022/09/16 12:11:23;;;;;;;0.10;0.10;;;;;;;;;;4975000;28;20042;-92
2022/09/16 12:13:52;;;;;;;0.10;0.10;;;;;;;;;;4973991;28;20407;-93
2022/09/16 12:16:35;;;;;;;0.10;0.10;;;;;;;;;;4964376;28;20375;-96
2022/09/16 12:19:06;;;;;;;0.20;0.20;;;;;;;;;;4977113;28;20136;-92
2022/09/16 12:21:40;;;;;;;0.10;0.10;;;;;;;;;;4975890;28;20469;-90
2022/09/16 12:24:12;;;;;;;0.10;0.10;;;;;;;;;;4959896;28;20489;-93
2022/09/16 12:27:05;;;;;;;1.75;0.75;;;;;;;;;;4975054;28;20038;-94
2022/09/16 12:32:15;;;;;;;0.20;0.20;;;;;;;;;;5654394;22;20139;-90
2022/09/16 12:34:45;;;;;;;0.10;0.10;;;;;;;;;;5017868;28;20049;-91
2022/09/16 12:41:21;;;;;;;0.10;0.10;;;;;;;;;;5031211;28;20056;-96
2022/09/16 12:43:52;;;;;;;0.20;0.20;;;;;;;;;;5012848;28;20042;-96
2022/09/16 12:46:36;;;;;;;0.10;0.10;;;;;;;;;;5012488;28;20041;-96
2022/09/16 12:49:30;;;;;;;0.10;0.10;;;;;;;;;;5027392;28;20073;-96
2022/09/16 12:52:38;;;;;;;;;;;;;;;;;;;;;
2022/09/16 12:55:54;;;;;;;0.10;0.10;;;;;;;;;;5014870;28;20088;-94
2022/09/16 12:58:31;;;;;;;0.10;0.10;;;;;;;;;;4995924;28;20284;-96
2022/09/16 13:00:57;;;;;;;0.10;0.10;;;;;;;;;;4996128;28;20186;-96
2022/09/16 13:03:25;;;;;;;0.10;0.10;;;;;;;;;;5011995;28;20053;-93
2022/09/16 13:05:51;;;;;;;0.13;0.13;;;;;;;;;;4993844;28;20042;-93
2022/09/16 13:08:25;;;;;;;0.10;0.10;;;;;;;;;;4993182;28;20046;-92
2022/09/16 13:10:58;;;;;;;0.65;0.65;;;;;;;;;;4992982;28;20597;-91
2022/09/16 13:13:29;;;;;;;0.40;0.40;;;;;;;;;;4993670;28;20045;-90
2022/09/16 13:15:56;;;;;;;0.10;0.10;;;;;;;;;;4993580;28;20116;-90
2022/09/16 13:18:37;;;;;;;0.10;0.10;;;;;;;;;;4993794;28;20038;-91
2022/09/16 14:30:17;;;;;;;0.10;0.10;;;;;;;;;;5014099;28;20131;-95
2022/09/16 14:32:45;;;;;;;0.20;0.20;;;;;;;;;;4961793;28;20104;-94
2022/09/16 14:35:16;;;;;;;0.10;0.10;;;;;;;;;;4961351;28;20042;-93
2022/09/16 14:37:47;;;;;;;0.10;0.10;;;;;;;;;;4977826;28;20038;-96
2022/09/16 14:40:23;;;;;;;0.10;0.10;;;;;;;;;;4963600;28;20073;-96
2022/09/16 14:42:56;;;;;;;0.10;0.10;;;;;;;;;;4962202;28;20056;-94
2022/09/16 14:45:34;;;;;;;0.20;0.20;;;;;;;;;;4962245;28;20078;-96
2022/09/16 14:48:21;;;;;;;0.10;0.10;;;;;;;;;;4960181;28;20513;-96
2022/09/16 14:50:53;;;;;;;0.20;0.20;;;;;;;;;;4979143;28;20121;-95
2022/09/16 14:53:37;;;;;;;0.20;0.20;;;;;;;;;;4962616;28;20078;-95
2022/09/16 14:56:18;;;;;;;0.10;0.10;;;;;;;;;;4962585;28;20038;-94
2022/09/16 14:59:06;;;;;;;0.20;0.20;;;;;;;;;;4999569;28;20121;-94
2022/09/16 15:04:10;;;;;;;0.20;0.20;;;;;;;;;;6048146;22;20356;-94
2022/09/16 15:06:41;;;;;;;0.10;0.10;;;;;;;;;;5035477;28;20060;-94
2022/09/16 15:09:17;;;;;;;0.10;0.10;;;;;;;;;;5019223;28;20095;-96
2022/09/16 15:11:47;;;;;;;0.10;0.10;;;;;;;;;;5042317;28;20432;-95
2022/09/16 15:14:15;;;;;;;0.10;0.10;;;;;;;;;;5032762;28;20104;-96
2022/09/16 15:17:03;;;;;;;0.10;0.10;;;;;;;;;;5040417;28;20045;-96
2022/09/16 15:19:36;;;;;;;0.10;0.10;;;;;;;;;;5057796;28;20147;-93
2022/09/16 15:22:12;;;;;;;0.13;0.10;;;;;;;;;;5060660;28;20136;-96
2022/09/16 15:25:06;;;;;;;0.10;0.10;;;;;;;;;;5059940;28;20041;-96
2022/09/16 15:27:54;;;;;;;0.10;0.10;;;;;;;;;;5061584;28;20057;-96
2022/09/16 15:33:53;;;;;;;0.10;0.10;;;;;;;;;;5017751;28;20044;-93
2022/09/16 15:36:51;;;;;;;0.10;0.10;;;;;;;;;;5032864;28;20427;-90
2022/09/16 15:39:33;;;;;;;0.10;0.10;;;;;;;;;;5025852;28;20060;-86
2022/09/16 15:42:12;;;;;;;5.78;0.20;;;;;;;;;;5047293;28;20503;-87
2022/09/16 15:44:44;;;;;;;0.10;0.10;;;;;;;;;;5014048;28;20041;-87
2022/09/16 15:47:26;;;;;;;0.45;0.45;;;;;;;;;;5046926;28;20129;-90
2022/09/16 15:50:08;;;;;;;0.10;0.10;;;;;;;;;;5030339;28;20124;-89
2022/09/16 15:52:34;;;;;;;;;;;;;;;;;;5014687;28;20075;-93
2022/09/16 15:55:05;;;;;;;0.10;0.10;;;;;;;;;;5014356;28;20363;-93
2022/09/16 15:57:38;;;;;;;0.10;0.10;;;;;;;;;;5031163;28;20506;-95
2022/09/16 16:02:39;;;;;;;;;;;;;;;;;;5330633;22;20087;-86
2022/09/16 16:05:09;;;;;;;0.40;0.40;;;;;;;;;;4997633;28;19920;-89
2022/09/16 16:07:55;;;;;;;0.10;0.10;;;;;;;;;;5014183;28;20507;-93
2022/09/16 16:10:31;;;;;;;0.10;0.10;;;;;;;;;;5014504;28;20107;-94
2022/09/16 16:13:02;;;;;;;0.10;0.10;;;;;;;;;;4999791;28;20033;-91
2022/09/16 16:15:30;;;;;;;0.10;0.10;;;;;;;;;;5014876;28;20052;-91
2022/09/16 16:18:00;;;;;;;0.22;0.22;;;;;;;;;;4998235;28;20037;-90
2022/09/16 16:20:27;;;;;;;0.10;0.10;;;;;;;;;;5014868;28;20033;-93
2022/09/16 16:22:54;;;;;;;0.10;0.10;;;;;;;;;;4999517;28;20041;-93
2022/09/16 16:25:21;;;;;;;0.10;0.10;;;;;;;;;;5016342;28;20081;-92
2022/09/16 16:27:51;;;;;;;0.20;0.20;;;;;;;;;;4999199;28;20042;-96
2022/09/16 16:30:18;;;;;;;0.10;0.10;;;;;;;;;;5008159;28;20053;-93
2022/09/16 16:33:06;;;;;;;0.10;0.10;;;;;;;;;;5015130;28;20488;-94
2022/09/16 16:35:36;;;;;;;0.10;0.10;;;;;;;;;;5289349;23;20046;-95
2022/09/16 16:41:27;;;;;;;0.10;0.10;;;;;;;;;;5005105;28;20050;-96
2022/09/16 16:43:53;;;;;;;0.10;0.10;;;;;;;;;;4995993;28;20048;-91
2022/09/16 16:46:20;;;;;;;0.10;0.10;;;;;;;;;;4995227;28;20034;-91
2022/09/16 16:48:46;;;;;;;0.10;0.10;;;;;;;;;;4995126;28;20286;-92
2022/09/16 16:51:12;;;;;;;0.10;0.10;;;;;;;;;;4994829;28;20073;-92
2022/09/16 16:53:38;;;;;;;0.10;0.10;;;;;;;;;;4995436;28;20365;-91
2022/09/16 16:56:04;;;;;;;0.10;0.10;;;;;;;;;;4995286;28;20180;-93
2022/09/16 16:58:45;;;;;;;0.10;0.10;;;;;;;;;;5011412;28;20091;-88
2022/09/16 17:01:12;;;;;;;0.10;0.10;;;;;;;;;;4992911;28;20073;-88
2022/09/16 17:03:39;;;;;;;0.10;0.10;;;;;;;;;;4978548;28;20129;-87
2022/09/16 17:06:06;;;;;;;0.10;0.10;;;;;;;;;;4978604;28;20047;-87
2022/09/16 17:08:32;;;;;;;0.10;0.10;;;;;;;;;;4994423;28;20089;-87
2022/09/16 17:11:11;;;;;;;0.10;0.10;;;;;;;;;;4978541;28;20049;-87
2022/09/16 17:13:37;;;;;;;0.10;0.10;;;;;;;;;;4978417;28;20141;-88
2022/09/16 17:16:04;;;;;;;0.30;0.30;;;;;;;;;;4978506;28;20180;-87
2022/09/16 17:18:29;;;;;;;0.10;0.10;;;;;;;;;;4978924;28;20370;-87
2022/09/16 17:21:25;;;;;;;0.10;0.10;;;;;;;;;;4978015;28;20157;-87
2022/09/16 17:23:52;;;;;;;0.10;0.10;;;;;;;;;;4978673;28;20516;-90
2022/09/16 17:26:18;;;;;;;0.10;0.10;;;;;;;;;;4978435;28;20034;-90
2022/09/16 17:28:44;;;;;;;0.10;0.10;;;;;;;;;;4978619;28;20034;-86
2022/09/16 17:31:21;;;;;;;0.10;0.10;;;;;;;;;;4977950;28;20500;-87
2022/09/16 17:33:48;;;;;;;0.10;0.10;;;;;;;;;;4978077;28;20047;-86
2022/09/16 17:36:15;;;;;;;0.10;0.10;;;;;;;;;;4977902;28;20062;-86
2022/09/16 17:38:41;;;;;;;0.10;0.10;;;;;;;;;;4994347;28;20453;-87
2022/09/16 17:41:07;;;;;;;0.10;0.10;;;;;;;;;;4994485;28;20049;-87
2022/09/16 17:43:33;;;;;;;0.10;0.10;;;;;;;;;;4977891;28;20129;-87